Time;durP1;ratioP1;P1;durP2;ratioP2;P2;SDS_P1;SDS_P2;PMS_P1;PMS_P2;Temp;Humidity;BMP_temperature;BMP_pressure;BME280_temperature;BME280_humidity;BME280_pressure;Samples;Min_cycle;Max_cycle;Signal;HPM_P1;HPM_P2
2021/05/14 04:33:01;;;;;;;3.50;1.63;;;;;;;;;;5436643;23;19907;-82
2021/05/14 04:35:32;;;;;;;1.58;1.20;;;;;;;;;;4914488;29;20052;-82
2021/05/14 04:38:31;;;;;;;2.20;1.60;;;;;;;;;;4935451;29;20047;-82
2021/05/14 04:42:14;;;;;;;2.97;1.60;;;;;;;;;;4938858;29;20031;-83
2021/05/14 04:45:27;;;;;;;1.55;1.30;;;;;;;;;;4878208;29;20056;-83
2021/05/14 04:48:55;;;;;;;5.18;1.40;;;;;;;;;;4921971;29;20083;-82
2021/05/14 04:52:04;;;;;;;1.55;1.30;;;;;;;;;;4915236;29;20047;-83
2021/05/14 04:54:56;;;;;;;2.65;1.55;;;;;;;;;;4942398;29;20031;-83
2021/05/14 04:57:52;;;;;;;3.25;1.40;;;;;;;;;;4939303;29;20036;-83
2021/05/14 05:00:30;;;;;;;3.53;1.67;;;;;;;;;;4952210;29;20047;-83
2021/05/14 05:02:58;;;;;;;2.83;1.70;;;;;;;;;;4916173;29;20042;-82
2021/05/14 05:05:24;;;;;;;3.45;1.60;;;;;;;;;;4949183;29;20032;-82
2021/05/14 05:08:13;;;;;;;2.05;1.40;;;;;;;;;;4946805;29;20048;-82
2021/05/14 05:10:43;;;;;;;2.78;1.80;;;;;;;;;;4935126;29;20047;-82
2021/05/14 05:13:10;;;;;;;4.43;1.67;;;;;;;;;;4922244;29;20083;-82
2021/05/14 05:15:42;;;;;;;1.90;1.73;;;;;;;;;;4927039;29;20024;-82
2021/05/14 05:18:42;;;;;;;2.63;1.80;;;;;;;;;;4939512;29;20073;-82
2021/05/14 05:21:10;;;;;;;2.75;1.88;;;;;;;;;;4934460;29;20031;-81
2021/05/14 05:23:40;;;;;;;2.15;1.63;;;;;;;;;;4933908;29;20091;-82
2021/05/14 05:26:08;;;;;;;2.20;1.67;;;;;;;;;;4935889;29;20036;-82
2021/05/14 05:28:52;;;;;;;2.53;1.70;;;;;;;;;;4935665;29;20429;-83
2021/05/14 05:31:50;;;;;;;2.78;1.70;;;;;;;;;;4872004;29;20041;-81
2021/05/14 05:34:50;;;;;;;2.53;1.77;;;;;;;;;;4878293;29;20033;-83
2021/05/14 05:37:16;;;;;;;2.38;2.03;;;;;;;;;;4874540;29;20094;-81
2021/05/14 05:39:41;;;;;;;3.72;1.90;;;;;;;;;;4859108;29;20038;-81
2021/05/14 05:42:09;;;;;;;3.53;1.60;;;;;;;;;;4860199;29;20149;-82
2021/05/14 05:44:58;;;;;;;2.55;1.50;;;;;;;;;;4871851;29;20140;-83
2021/05/14 05:47:32;;;;;;;2.47;1.42;;;;;;;;;;4865959;29;20045;-82
2021/05/14 05:50:32;;;;;;;3.13;1.42;;;;;;;;;;4881417;29;20085;-83
2021/05/14 05:54:08;;;;;;;2.17;1.50;;;;;;;;;;4871040;29;20013;-83
2021/05/14 05:57:30;;;;;;;3.45;1.63;;;;;;;;;;4855713;29;20037;-83
2021/05/14 06:00:41;;;;;;;;;;;;;;;;;;4780810;30;20089;-83
2021/05/14 06:03:11;;;;;;;1.92;1.30;;;;;;;;;;4790553;30;20091;-83
2021/05/14 06:06:09;;;;;;;2.03;1.60;;;;;;;;;;4781165;30;20131;-82
2021/05/14 06:08:54;;;;;;;2.30;1.60;;;;;;;;;;4804538;29;20042;-83
2021/05/14 06:14:19;;;;;;;2.97;1.70;;;;;;;;;;4808042;30;20046;-83
2021/05/14 06:16:59;;;;;;;1.60;1.33;;;;;;;;;;4802554;30;20103;-82
2021/05/14 06:19:29;;;;;;;;;;;;;;;;;;5033276;23;20031;-82
2021/05/14 06:21:59;;;;;;;2.85;1.27;;;;;;;;;;4965577;29;19946;-82
2021/05/14 06:24:32;;;;;;;4.55;1.75;;;;;;;;;;4972560;29;20023;-83
2021/05/14 06:26:58;;;;;;;3.42;1.77;;;;;;;;;;4969917;29;20050;-82
2021/05/14 06:29:47;;;;;;;1.65;1.50;;;;;;;;;;4970185;29;20035;-83
2021/05/14 06:32:14;;;;;;;2.42;1.50;;;;;;;;;;4963517;29;20019;-83
2021/05/14 06:35:02;;;;;;;2.55;1.80;;;;;;;;;;4970008;29;20023;-83
2021/05/14 06:37:31;;;;;;;4.03;1.77;;;;;;;;;;4962702;29;20062;-79
2021/05/14 06:39:57;;;;;;;2.67;1.65;;;;;;;;;;4952856;29;20081;-79
2021/05/14 06:42:23;;;;;;;2.47;1.70;;;;;;;;;;4954659;29;20053;-79
2021/05/14 06:44:48;;;;;;;2.55;1.70;;;;;;;;;;4954063;29;20031;-79
2021/05/14 06:47:13;;;;;;;2.38;1.60;;;;;;;;;;4952189;29;20484;-79
2021/05/14 06:49:39;;;;;;;1.52;1.10;;;;;;;;;;4954233;29;20128;-80
2021/05/14 06:52:04;;;;;;;1.23;1.13;;;;;;;;;;4953266;28;20403;-79
2021/05/14 06:54:30;;;;;;;1.30;1.10;;;;;;;;;;4932439;29;20032;-80
2021/05/14 07:00:36;;;;;;;2.50;1.33;;;;;;;;;;4961290;29;20055;-85
2021/05/14 07:04:23;;;;;;;1.15;1.05;;;;;;;;;;4960388;29;20085;-84
2021/05/14 07:10:21;;;;;;;2.85;1.20;;;;;;;;;;5470065;23;20041;-82
2021/05/14 07:18:00;;;;;;;1.98;1.25;;;;;;;;;;5434018;23;20058;-81
2021/05/14 07:20:26;;;;;;;1.42;1.10;;;;;;;;;;4974128;28;20019;-80
2021/05/14 07:22:52;;;;;;;2.13;1.17;;;;;;;;;;4973385;28;20031;-81
2021/05/14 07:25:17;;;;;;;1.65;1.17;;;;;;;;;;4971364;28;20514;-80
2021/05/14 07:27:43;;;;;;;1.58;1.20;;;;;;;;;;4971703;28;20099;-79
2021/05/14 07:30:11;;;;;;;1.65;0.77;;;;;;;;;;4972506;28;20015;-79
2021/05/14 07:32:38;;;;;;;1.23;0.95;;;;;;;;;;4972911;28;20596;-80
2021/05/14 07:35:06;;;;;;;2.08;1.30;;;;;;;;;;4972123;28;20019;-80
2021/05/14 07:37:32;;;;;;;2.75;1.00;;;;;;;;;;4962195;28;20038;-79
2021/05/14 07:39:57;;;;;;;1.17;1.05;;;;;;;;;;4968749;28;20030;-79
2021/05/14 07:42:23;;;;;;;2.50;1.25;;;;;;;;;;4971402;28;20391;-80
2021/05/14 07:44:48;;;;;;;2.50;1.10;;;;;;;;;;4970958;28;20069;-80
2021/05/14 07:47:14;;;;;;;3.10;1.15;;;;;;;;;;4971846;28;20070;-79
2021/05/14 07:49:39;;;;;;;1.92;1.17;;;;;;;;;;4966146;28;20460;-79
2021/05/14 07:52:05;;;;;;;3.00;1.33;;;;;;;;;;4971421;28;20058;-80
2021/05/14 07:54:30;;;;;;;3.53;1.23;;;;;;;;;;4961257;28;20023;-79
2021/05/14 07:56:56;;;;;;;2.90;1.20;;;;;;;;;;4948518;29;20322;-80
2021/05/14 07:59:21;;;;;;;1.13;0.70;;;;;;;;;;4949284;29;20034;-80
2021/05/14 08:01:48;;;;;;;0.60;0.60;;;;;;;;;;4933180;29;20024;-79
2021/05/14 08:04:13;;;;;;;1.52;0.70;;;;;;;;;;4948782;29;20039;-79
2021/05/14 08:06:38;;;;;;;1.55;0.65;;;;;;;;;;4953232;28;20077;-79
2021/05/14 08:09:07;;;;;;;2.83;1.40;;;;;;;;;;4948675;29;20043;-80
2021/05/14 08:11:33;;;;;;;3.58;3.28;;;;;;;;;;4944777;28;20035;-80
2021/05/14 08:13:58;;;;;;;1.63;1.52;;;;;;;;;;4954700;28;20158;-79
2021/05/14 08:16:24;;;;;;;1.13;0.80;;;;;;;;;;4951362;29;20058;-79
2021/05/14 08:18:51;;;;;;;0.60;0.50;;;;;;;;;;4962432;28;20094;-79
2021/05/14 08:21:20;;;;;;;1.00;0.60;;;;;;;;;;4953064;28;20515;-79
2021/05/14 08:23:45;;;;;;;0.60;0.60;;;;;;;;;;4969328;28;20398;-81
2021/05/14 08:26:12;;;;;;;0.55;0.50;;;;;;;;;;4952469;28;20022;-81
2021/05/14 08:28:38;;;;;;;0.68;0.68;;;;;;;;;;4947034;28;20047;-82
2021/05/14 08:31:03;;;;;;;2.03;0.60;;;;;;;;;;4951010;28;20035;-82
2021/05/14 08:33:29;;;;;;;1.00;0.73;;;;;;;;;;4951115;28;20050;-81
2021/05/14 08:35:55;;;;;;;1.35;0.73;;;;;;;;;;4947882;28;20650;-81
2021/05/14 08:38:21;;;;;;;1.27;0.70;;;;;;;;;;4956025;28;20031;-81
2021/05/14 08:40:47;;;;;;;1.25;0.75;;;;;;;;;;4939236;28;20039;-81
2021/05/14 08:43:12;;;;;;;0.95;0.70;;;;;;;;;;4957470;28;20104;-81
2021/05/14 08:45:39;;;;;;;1.85;0.70;;;;;;;;;;5029113;23;20089;-81
2021/05/14 08:48:27;;;;;;;1.55;1.10;;;;;;;;;;4970408;28;20026;-83
2021/05/14 08:50:54;;;;;;;3.20;2.90;;;;;;;;;;4990059;28;20041;-83
2021/05/14 08:53:56;;;;;;;1.92;1.73;;;;;;;;;;4978043;28;20023;-84
2021/05/14 09:00:36;;;;;;;1.27;0.60;;;;;;;;;;4938880;29;20083;-85
2021/05/14 09:04:11;;;;;;;0.73;0.65;;;;;;;;;;4906278;29;20148;-85
2021/05/14 12:56:14;;;;;;;2.58;0.73;;;;;;;;;;5714632;23;20027;-84
2021/05/14 17:13:29;;;;;;;1.60;0.55;;;;;;;;;;5802851;23;20058;-86
